Time;durP1;ratioP1;P1;durP2;ratioP2;P2;SDS_P1;SDS_P2;PMS_P1;PMS_P2;Temp;Humidity;BMP_temperature;BMP_pressure;BME280_temperature;BME280_humidity;BME280_pressure;Samples;Min_cycle;Max_cycle;Signal;HPM_P1;HPM_P2
2023/06/24 00:05:12;;;;;;;24.23;16.60;;;;;;;18.85;83.66;100419.88;30494271;28;97049;-68
2023/06/24 00:20:14;;;;;;;20.58;17.35;;;;;;;18.77;83.72;100418.25;30509613;28;97736;-67
2023/06/24 00:35:15;;;;;;;22.60;17.03;;;;;;;18.71;83.88;100419.16;30508598;28;96692;-70
2023/06/24 00:50:16;;;;;;;18.00;14.10;;;;;;;18.70;83.91;100438.22;30507273;28;96662;-69
2023/06/24 01:05:16;;;;;;;19.48;13.80;;;;;;;18.64;83.72;100442.63;30504780;28;96714;-68
2023/06/24 01:20:29;;;;;;;16.15;11.73;;;;;;;18.47;83.34;100477.38;30504876;28;96859;-69
2023/06/24 01:35:34;;;;;;;13.87;9.60;;;;;;;18.34;83.37;100499.84;30502336;28;97738;-68
2023/06/24 01:50:37;;;;;;;6.77;5.67;;;;;;;18.10;82.63;100529.19;30501893;28;97952;-69
2023/06/24 02:05:40;;;;;;;9.23;5.87;;;;;;;17.67;82.13;100537.72;30499942;28;97602;-70
2023/06/24 02:20:43;;;;;;;8.00;5.70;;;;;;;17.29;81.95;100556.38;30499086;28;96750;-68
2023/06/24 02:35:45;;;;;;;10.40;6.20;;;;;;;16.89;81.88;100575.97;30498009;28;96726;-71
2023/06/24 02:50:47;;;;;;;11.97;6.57;;;;;;;16.69;81.79;100587.47;30496940;28;96999;-69
2023/06/24 03:05:49;;;;;;;;;;;;;;;16.52;81.96;100607.66;30494483;28;96846;-67
2023/06/24 03:20:50;;;;;;;10.93;5.67;;;;;;;16.33;81.80;100631.53;30493482;28;96786;-70
2023/06/24 03:35:51;;;;;;;9.75;5.28;;;;;;;16.19;81.69;100665.56;30491514;28;109888;-68
2023/06/24 03:50:51;;;;;;;8.17;5.90;;;;;;;16.04;81.85;100668.34;30490926;28;96819;-68
2023/06/24 04:05:55;;;;;;;7.75;5.40;;;;;;;15.94;82.00;100686.66;30489417;28;96759;-68
2023/06/24 04:20:57;;;;;;;5.97;4.13;;;;;;;15.85;81.93;100691.31;30487799;28;96688;-67
2023/06/24 04:35:58;;;;;;;5.27;3.50;;;;;;;15.74;81.42;100703.38;30496997;28;96874;-68
2023/06/24 04:50:58;;;;;;;7.50;4.37;;;;;;;15.81;81.62;100734.91;30504583;28;97625;-69
2023/06/24 05:05:59;;;;;;;7.00;3.33;;;;;;;15.76;81.61;100759.63;30504373;28;96951;-68
2023/06/24 05:20:59;;;;;;;6.45;3.67;;;;;;;15.78;81.71;100781.75;30503561;28;100680;-68
2023/06/24 05:35:59;;;;;;;5.28;3.30;;;;;;;15.88;81.88;100800.25;30501956;28;111507;-69
2023/06/24 05:51:00;;;;;;;4.68;3.00;;;;;;;15.98;81.64;100808.00;30496695;28;110842;-68
2023/06/24 06:06:00;;;;;;;6.22;3.50;;;;;;;16.41;81.44;100795.38;30497290;28;96742;-69
2023/06/24 06:21:00;;;;;;;4.80;3.42;;;;;;;16.84;81.36;100815.16;30498500;28;97171;-68
2023/06/24 06:36:01;;;;;;;6.88;3.97;;;;;;;17.31;80.94;100821.69;30496816;28;97558;-70
2023/06/24 06:51:01;;;;;;;6.88;4.38;;;;;;;17.42;79.84;100833.78;30494053;28;96798;-71
2023/06/24 07:06:02;;;;;;;7.40;4.82;;;;;;;17.62;79.51;100838.41;30491629;28;106179;-70
2023/06/24 07:21:02;;;;;;;7.45;5.22;;;;;;;17.70;78.60;100832.84;30491635;28;96781;-70
2023/06/24 07:36:03;;;;;;;8.85;5.50;;;;;;;17.94;78.50;100836.91;30490383;28;97672;-71
2023/06/24 07:51:03;;;;;;;8.47;5.40;;;;;;;18.31;78.08;100842.78;30490130;28;96891;-72
2023/06/24 08:06:04;;;;;;;9.00;5.90;;;;;;;19.12;77.94;100854.41;30493239;28;102703;-71
2023/06/24 08:21:04;;;;;;;8.45;6.50;;;;;;;19.75;76.10;100855.66;30509627;28;97220;-69
2023/06/24 08:36:05;;;;;;;8.60;6.80;;;;;;;19.72;75.54;100867.72;30505300;28;110937;-70
2023/06/24 08:51:07;;;;;;;9.50;6.83;;;;;;;19.81;74.60;100868.38;30504829;28;97285;-68
2023/06/24 09:06:08;;;;;;;9.60;7.33;;;;;;;20.02;73.47;100871.81;30503613;28;96806;-69
2023/06/24 09:21:10;;;;;;;9.67;6.90;;;;;;;19.70;72.54;100887.94;30502814;28;96772;-69
2023/06/24 09:36:14;;;;;;;13.50;8.93;;;;;;;19.56;72.17;100876.31;30501811;28;97648;-68
2023/06/24 09:51:16;;;;;;;12.40;7.60;;;;;;;19.91;72.15;100862.50;30498967;28;97434;-69
2023/06/24 10:06:16;;;;;;;10.30;7.97;;;;;;;20.65;70.06;100868.25;30497948;28;96802;-69
2023/06/24 10:21:16;;;;;;;11.43;8.50;;;;;;;21.38;69.34;100871.34;30496022;28;96729;-72
2023/06/24 10:36:52;;;;;;;9.33;7.80;;;;;;;22.08;67.16;100864.69;30495949;28;96758;-73
2023/06/24 10:51:53;;;;;;;10.00;6.37;;;;;;;23.44;64.61;100871.22;30494999;28;96767;-69
2023/06/24 11:07:00;;;;;;;9.10;5.75;;;;;;;23.59;61.52;100868.84;30492889;28;97335;-69
2023/06/24 11:22:01;;;;;;;7.33;5.50;;;;;;;25.24;57.90;100840.88;30492063;28;97346;-69
2023/06/24 11:37:15;;;;;;;6.28;5.20;;;;;;;28.10;51.41;100825.25;30491489;28;96746;-70
2023/06/24 11:52:15;;;;;;;6.97;4.67;;;;;;;28.17;47.18;100801.16;30529457;28;96741;-70
2023/06/24 12:07:16;;;;;;;5.78;4.10;;;;;;;28.92;44.26;100795.03;30528540;28;96811;-71
2023/06/24 12:22:16;;;;;;;6.82;4.75;;;;;;;29.22;41.43;100782.31;30527544;28;105871;-74
2023/06/24 12:37:16;;;;;;;6.78;4.63;;;;;;;28.44;41.62;100765.25;30525512;28;96830;-73
2023/06/24 12:52:17;;;;;;;8.25;5.05;;;;;;;28.46;40.08;100746.63;30521533;28;96908;-70
2023/06/24 13:07:17;;;;;;;6.90;4.30;;;;;;;28.41;39.96;100738.41;30504729;28;101218;-70
2023/06/24 13:22:18;;;;;;;5.95;4.60;;;;;;;29.30;39.20;100723.34;30504343;28;96864;-74
2023/06/24 13:37:18;;;;;;;5.25;3.97;;;;;;;28.92;38.41;100726.50;30501770;28;97316;-70
2023/06/24 13:52:19;;;;;;;8.77;5.32;;;;;;;29.29;37.15;100703.28;30499177;28;113883;-70
2023/06/24 14:07:19;;;;;;;5.93;3.97;;;;;;;29.06;37.46;100703.94;30498740;28;96815;-73
2023/06/24 14:22:20;;;;;;;5.93;3.63;;;;;;;28.96;37.34;100705.63;30498002;28;96850;-70
2023/06/24 14:37:21;;;;;;;5.57;3.73;;;;;;;28.79;37.30;100691.47;30495743;28;97733;-70
2023/06/24 14:52:21;;;;;;;7.22;3.90;;;;;;;28.70;37.17;100689.31;30494936;28;107970;-71
2023/06/24 15:07:21;;;;;;;6.80;3.75;;;;;;;27.69;38.03;100679.00;30492441;28;98936;-71
2023/06/24 15:22:23;;;;;;;5.70;3.97;;;;;;;27.22;39.77;100685.47;30490894;28;96945;-70
2023/06/24 15:37:23;;;;;;;6.67;4.20;;;;;;;27.27;40.20;100670.97;30491395;28;97544;-70
2023/06/24 15:52:23;;;;;;;5.53;4.03;;;;;;;26.83;40.48;100669.47;30490640;28;96770;-70
2023/06/24 16:07:24;;;;;;;5.50;4.47;;;;;;;26.69;41.19;100661.75;30489702;28;99882;-73
2023/06/24 16:22:24;;;;;;;6.05;4.40;;;;;;;26.57;39.78;100672.06;30486809;28;96738;-69
2023/06/24 16:37:24;;;;;;;6.63;4.00;;;;;;;25.96;40.78;100667.84;30504575;28;113266;-71
2023/06/24 16:52:25;;;;;;;6.70;4.20;;;;;;;25.58;41.98;100675.19;30506670;28;97403;-70
2023/06/24 17:07:25;;;;;;;7.95;4.80;;;;;;;25.01;42.17;100660.13;30504441;28;96932;-71
2023/06/24 17:22:25;;;;;;;8.40;4.97;;;;;;;24.19;43.57;100659.03;30503351;28;112674;-69
2023/06/24 17:37:26;;;;;;;6.88;5.10;;;;;;;23.78;44.43;100646.44;30500127;28;111066;-69
2023/06/24 17:52:26;;;;;;;10.23;5.43;;;;;;;23.32;45.67;100641.00;30498947;28;113469;-70
2023/06/24 18:07:26;;;;;;;8.98;6.55;;;;;;;23.20;46.79;100645.69;30499613;28;96942;-72
2023/06/24 18:22:27;;;;;;;12.10;6.63;;;;;;;22.88;48.11;100646.16;30481177;28;97199;-72
2023/06/24 18:37:30;;;;;;;9.00;6.22;;;;;;;22.33;49.61;100649.28;30495914;28;96794;-72
2023/06/24 18:52:30;;;;;;;8.10;6.70;;;;;;;21.88;50.98;100665.06;30495507;28;96861;-69
2023/06/24 19:07:31;;;;;;;13.30;7.72;;;;;;;21.48;52.20;100668.38;30494700;28;96956;-73
2023/06/24 19:22:31;;;;;;;9.90;6.47;;;;;;;21.18;53.20;100682.75;30491952;28;101847;-69
2023/06/24 19:37:31;;;;;;;10.50;6.87;;;;;;;20.94;54.08;100676.38;30490157;28;109045;-68
2023/06/24 19:52:32;;;;;;;11.83;7.93;;;;;;;20.77;55.07;100684.28;30490801;28;96768;-68
2023/06/24 20:07:32;;;;;;;8.57;6.50;;;;;;;20.49;55.69;100688.31;30500737;28;97032;-68
2023/06/24 20:22:32;;;;;;;11.43;7.07;;;;;;;20.20;55.30;100687.97;30507952;28;96991;-70
2023/06/24 20:37:33;;;;;;;10.57;6.83;;;;;;;19.88;56.47;100685.31;30508055;28;98756;-71
2023/06/24 20:52:35;;;;;;;8.17;6.57;;;;;;;19.70;56.68;100693.34;30505873;28;96813;-69
2023/06/24 21:07:35;;;;;;;8.90;6.40;;;;;;;19.33;57.50;100674.22;30504284;28;96821;-70
2023/06/24 21:22:36;;;;;;;8.30;6.53;;;;;;;19.02;58.25;100675.84;30502496;28;96710;-72
2023/06/24 21:37:36;;;;;;;13.02;7.78;;;;;;;18.80;58.91;100681.47;30503803;28;97409;-68
2023/06/24 21:52:37;;;;;;;9.95;6.65;;;;;;;18.56;59.39;100685.69;30502731;28;96796;-72
2023/06/24 22:07:37;;;;;;;10.60;7.05;;;;;;;18.35;60.16;100692.19;30500683;28;96775;-71
2023/06/24 22:22:42;;;;;;;9.95;7.80;;;;;;;18.09;60.85;100700.06;30499491;28;96876;-68
2023/06/24 22:37:43;;;;;;;14.63;9.23;;;;;;;17.92;61.58;100704.22;30497837;28;97264;-71
2023/06/24 22:52:44;;;;;;;9.88;7.50;;;;;;;17.69;62.24;100699.19;30496558;28;97269;-69
2023/06/24 23:07:44;;;;;;;9.65;7.18;;;;;;;17.54;62.91;100700.19;30495111;28;98326;-72
2023/06/24 23:22:45;;;;;;;10.00;7.35;;;;;;;17.42;63.45;100699.13;30494415;28;96714;-70
2023/06/24 23:37:46;;;;;;;11.50;7.00;;;;;;;17.19;63.94;100699.47;30492729;28;96734;-68
2023/06/24 23:52:46;;;;;;;11.50;8.13;;;;;;;16.91;64.90;100693.13;30492765;28;96809;-70
